Nearby METAR Reports

 

KPAO - Palo Alto, California, USA
Distance from KPAO: NNW 0nm, 0mi
Updated: Thu, 09-Jul-2020 7:47am PDT
Sky Clear
Sky Clear
 Wind from calm
Wind: Calm
Temperature: 61°F , 16°C
Dew Point: 54°F , 12°C
Humidity: 77%
Barometer: 29.90 inHg , 1012.5 hPa
Clouds: Sky Clear
Visibility: 10 miles , 16 km
2020/07/09 14:47 KPAO 091447Z 00000KT 10SM SKC 16/12 A2990
KSQL - San Carlos Airpo, California, USA
Distance from KPAO: WNW 7nm, 8mi
Updated: Thu, 09-Jul-2020 7:47am PDT
Sky Clear
Sky Clear
 Wind from calm
Wind: Calm
Temperature: 59°F , 15°C
Dew Point: 54°F , 12°C
Humidity: 82%
Barometer: 29.90 inHg , 1012.5 hPa
Clouds: Sky Clear
Visibility: 10 miles , 16 km
2020/07/09 14:47 KSQL 091447Z 00000KT 10SM SKC 15/12 A2990
 
KSJC - San Jose, California, USA
Distance from KPAO: ESE 11nm, 13mi
Updated: Thu, 09-Jul-2020 7:53am PDT
Few Clouds
Few Clouds
 Wind from SSE
Wind: SSE 6 mph , 9 km/h
Temperature: 59°F , 15°C
Dew Point: 52°F , 11°C
Humidity: 77%
Barometer: 29.89 inHg , 1012.2 hPa
Clouds: Few Clouds
Visibility: 10 miles , 16 km
Cloud details: Few Clouds 300 ft
2020/07/09 14:53 KSJC 091453Z 15005KT 10SM FEW003 15/11 A2989 RMK AO2 SLP122 T01500106 52007
KHWD - Hayward, California, USA
Distance from KPAO: N 12nm, 14mi
Updated: Thu, 09-Jul-2020 6:54am PDT
Clear
Clear
 Wind from ENE
Wind: ENE 3 mph , 6 km/h
Temperature: 57°F , 14°C
Dew Point: 52°F , 11°C
Humidity: 82%
Barometer: 29.88 inHg , 1011.9 hPa
Clouds: Clear
Visibility: 10 miles , 16 km
2020/07/09 13:54 KHWD 091354Z AUTO 06003KT 10SM CLR 14/11 A2988 RMK AO2 SLP125 T01440106
 
KSFO - San Francisco, California, USA
Distance from KPAO: NW 16nm, 18mi
Updated: Thu, 09-Jul-2020 6:56am PDT
Few Clouds
Few Clouds
 Wind from WNW
Wind: WNW 3 mph , 6 km/h
Temperature: 55°F , 13°C
Dew Point: 50°F , 10°C
Humidity: 82%
Barometer: 29.88 inHg , 1011.9 hPa
Clouds: Few Clouds
Visibility: 10 miles , 16 km
Cloud details: Few Clouds 900 ft
2020/07/09 13:56 KSFO 091356Z 30003KT 10SM FEW009 13/10 A2988 RMK AO2 SLP117 T01280100
KRHV - San Jose/Reid, California, USA
Distance from KPAO: ESE 16nm, 18mi
Updated: Thu, 09-Jul-2020 7:47am PDT
Sky Clear
Sky Clear
 Wind from S
Wind: S 8 mph , 13 km/h
Temperature: 57°F , 14°C
Dew Point: 52°F , 11°C
Humidity: 82%
Barometer: 29.90 inHg , 1012.5 hPa
Clouds: Sky Clear
Visibility: 10 miles , 16 km
2020/07/09 14:47 KRHV 091447Z 19007KT 10SM SKC 14/11 A2990
 
KOAK - Oakland, California, USA
Distance from KPAO: NNW 16nm, 18mi
Updated: Thu, 09-Jul-2020 7:53am PDT
Few Clouds
Few Clouds
 Wind from calm
Wind: Calm
Temperature: 63°F , 17°C
Dew Point: 54°F , 12°C
Humidity: 73%
Barometer: 29.90 inHg , 1012.5 hPa
Clouds: Few Clouds
Visibility: 10 miles , 16 km
Cloud details: Few Clouds 1200 ft
2020/07/09 14:53 KOAK 091453Z 00000KT 10SM FEW012 17/12 A2990 RMK AO2 SLP125 T01720122 53004
KHAF - Half Moon Bay, California, USA
Distance from KPAO: W 19nm, 22mi
Updated: Thu, 09-Jul-2020 7:40am PDT
Mist, Overcast
Mist, Overcast
 Wind from SSE
Wind: SSE 9 mph , 15 km/h
Temperature: 54°F , 12°C
Dew Point: 50°F , 10°C
Humidity: 88%
Barometer: 29.91 inHg , 1012.9 hPa
Summary: Mist
Clouds: Overcast
Visibility: 4 miles , 6 km
Cloud details: Overcast 700 ft
2020/07/09 14:40 KHAF 091440Z AUTO 15008KT 4SM BR OVC007 12/10 A2991 RMK AO2
 
KLVK - Livermore, California, USA
Distance from KPAO: NE 20nm, 23mi
Updated: Thu, 09-Jul-2020 7:53am PDT
Clear
Clear
 Wind from calm
Wind: Calm
Temperature: 63°F , 17°C
Dew Point: 52°F , 11°C
Humidity: 68%
Barometer: 29.88 inHg , 1011.9 hPa
Clouds: Clear
Visibility: 10 miles , 16 km
2020/07/09 14:53 KLVK 091453Z 00000KT 10SM CLR 17/11 A2988 RMK AO2 SLP115 T01670106 53007
KC83 - Byron, California, USA
Distance from KPAO: NE 32nm, 40mi
Updated: Thu, 09-Jul-2020 7:35am PDT
Clear
Clear
 Wind from calm
Wind: Calm
Temperature: 66°F , 19°C
Dew Point: 54°F , 12°C
Humidity: 64%
Barometer: 29.85 inHg , 1010.8 hPa
Clouds: Clear
Visibility: 8 miles , 13 km
2020/07/09 14:35 KC83 091435Z AUTO 00000KT 8SM CLR 19/12 A2985 RMK AO2
 
KCCR - Concord, California, USA
Distance from KPAO: N 33nm, 37mi
Updated: Thu, 09-Jul-2020 7:53am PDT
Clear
Clear
 Wind from W
Wind: W 3 mph , 6 km/h
Temperature: 66°F , 19°C
Dew Point: 52°F , 11°C
Humidity: 60%
Barometer: 29.87 inHg , 1011.5 hPa
Clouds: Clear
Visibility: 10 miles , 16 km
2020/07/09 14:53 KCCR 091453Z 26003KT 10SM CLR 19/11 A2987 RMK AO2 SLP101 T01890106 53009
KWVI - Watsonville, California, USA
Distance from KPAO: SSE 35nm, 40mi
Updated: Thu, 09-Jul-2020 7:53am PDT
Overcast
Overcast
 Wind from E
Wind: E 5 mph , 7 km/h
Temperature: 55°F , 13°C
Dew Point: 54°F , 12°C
Humidity: 94%
Barometer: 29.92 inHg , 1013.2 hPa
Clouds: Overcast
Visibility: 9 miles , 14 km
Cloud details: Overcast 500 ft
2020/07/09 14:53 KWVI 091453Z AUTO 08004KT 9SM OVC005 13/12 A2992 RMK AO2 SLP133 T01280117 51009
 
KAPC - Napa, California, USA
Distance from KPAO: N 46nm, 53mi
Updated: Thu, 09-Jul-2020 6:54am PDT
Clear
Clear
 Wind from SSW
Wind: SSW 6 mph , 9 km/h
Temperature: 57°F , 14°C
Dew Point: 54°F , 12°C
Humidity: 88%
Barometer: 29.87 inHg , 1011.5 hPa
Clouds: Clear
Visibility: 9 miles , 14 km
2020/07/09 13:54 KAPC 091354Z AUTO 20005KT 9SM CLR 14/12 A2987 RMK AO2 SLP107 T01440117
KDVO - Novato/Gnoss Fld, California, USA
Distance from KPAO: NNW 46nm, 53mi
Updated: Thu, 09-Jul-2020 7:35am PDT
Clear
Clear
 Wind from calm
Wind: Calm
Temperature: 59°F , 15°C
Dew Point: 54°F , 12°C
Humidity: 82%
Barometer: 29.89 inHg , 1012.2 hPa
Clouds: Clear
Visibility: 8 miles , 13 km
2020/07/09 14:35 KDVO 091435Z AUTO 00000KT 8SM CLR 15/12 A2989 RMK AO2
 
KCVH - Hollister Muni, California, USA
Distance from KPAO: SE 48nm, 55mi
Updated: Thu, 09-Jul-2020 7:35am PDT
Overcast
Overcast
 Wind from calm
Wind: Calm
Temperature: 54°F , 12°C
Dew Point: 50°F , 10°C
Humidity: 88%
Barometer: 29.93 inHg , 1013.5 hPa
Clouds: Overcast
Visibility: 7 miles , 11 km
Cloud details: Overcast 600 ft
2020/07/09 14:35 KCVH 091435Z AUTO 00000KT 7SM OVC006 12/10 A2993 RMK A01
KSUU - Travis Afb/Fairf, California, USA
Distance from KPAO: ENE 49nm, 56mi
Updated: Thu, 09-Jul-2020 6:58am PDT
Clear
Clear
 Wind from SW
Wind: SW 12 mph , 19 km/h
Temperature: 59°F , 15°C
Dew Point: 52°F , 11°C
Humidity: 77%
Barometer: 29.84 inHg , 1010.5 hPa
Clouds: Clear
Visibility: 10 miles , 16 km
2020/07/09 13:58 KSUU 091358Z AUTO 23010KT 10SM CLR 15/11 A2984 RMK AO2 SLP111 T01470113 $
 
KSCK - Stockton, California, USA
Distance from KPAO: ENE 49nm, 56mi
Updated: Thu, 09-Jul-2020 6:55am PDT
Clear
Clear
 Wind from NW
Wind: NW 5 mph , 7 km/h
Temperature: 66°F , 19°C
Dew Point: 52°F , 11°C
Humidity: 60%
Barometer: 29.84 inHg , 1010.5 hPa
Clouds: Clear
Visibility: 10 miles , 16 km
2020/07/09 13:55 KSCK 091355Z AUTO 32004KT 10SM CLR 19/11 A2984 RMK AO2 SLP103 T01890111
KO69 - Petaluma, California, USA
Distance from KPAO: W 53nm, 61mi
Updated: Thu, 09-Jul-2020 7:35am PDT
Clear
Clear
 Wind from calm
Wind: Calm
Temperature: 55°F , 13°C
Dew Point: 54°F , 12°C
Humidity: 94%
Barometer: 29.89 inHg , 1012.2 hPa
Clouds: Clear
Visibility: 8 miles , 13 km
2020/07/09 14:35 KO69 091435Z AUTO 00000KT 8SM CLR 13/12 A2989 RMK A01
 
KSNS - Salinas, California, USA
Distance from KPAO: SSE 54nm, 62mi
Updated: Thu, 09-Jul-2020 7:53am PDT
Overcast
Overcast
 Wind from SW
Wind: SW 3 mph , 6 km/h
Temperature: 57°F , 14°C
Dew Point: 52°F , 11°C
Humidity: 82%
Barometer: 29.92 inHg , 1013.2 hPa
Clouds: Overcast
Visibility: 9 miles , 14 km
Cloud details: Overcast 800 ft
2020/07/09 14:53 KSNS 091453Z 22003KT 9SM OVC008 14/11 A2992 RMK AO2 SLP140 T01390106 53004
KMRY - Monterey, California, USA
Distance from KPAO: SSE 54nm, 62mi
Updated: Thu, 09-Jul-2020 6:54am PDT
Overcast
Overcast
 Wind from WSW
Wind: WSW 7 mph , 11 km/h
Temperature: 55°F , 13°C
Dew Point: 52°F , 11°C
Humidity: 88%
Barometer: 29.92 inHg , 1013.2 hPa
Clouds: Overcast
Visibility: 8 miles , 13 km
Cloud details: Overcast 600 ft
2020/07/09 13:54 KMRY 091354Z AUTO 25006KT 8SM OVC006 13/11 A2992 RMK AO2 SLP143 T01330111
 
KVCB - Vacaville, California, USA
Distance from KPAO: NE 55nm, 63mi
Updated: Thu, 09-Jul-2020 7:53am PDT
Clear
Clear
 Wind from E
Wind: E 3 mph , 6 km/h
Temperature: 66°F , 19°C
Dew Point: 52°F , 11°C
Humidity: 60%
Barometer: 29.86 inHg , 1011.2 hPa
Clouds: Clear
Visibility: 10 miles , 16 km
2020/07/09 14:53 KVCB 091453Z AUTO 09003KT 10SM CLR 19/11 A2986 RMK AO2 SLP110 T01940111 53013
KMOD - Modesto, California, USA
Distance from KPAO: E 56nm, 64mi
Updated: Thu, 09-Jul-2020 7:53am PDT
Clear
Clear
 Wind from NNW
Wind: NNW 7 mph , 11 km/h
Temperature: 70°F , 21°C
Dew Point: 48°F , 9°C
Humidity: 46%
Barometer: 29.84 inHg , 1010.5 hPa
Clouds: Clear
Visibility: 10 miles , 16 km
2020/07/09 14:53 KMOD 091453Z 33006KT 10SM CLR 21/09 A2984 RMK AO2 SLP104 T02110094 53013
 
KEDU - Davis, California, USA
Distance from KPAO: NE 66nm, 76mi
Updated: Thu, 09-Jul-2020 7:35am PDT
Clear
Clear
 Wind from NNW
Wind: NNW 3 mph , 6 km/h
Temperature: 59°F , 15°C
Dew Point: 54°F , 12°C
Humidity: 82%
Barometer: 29.85 inHg , 1010.8 hPa
Clouds: Clear
Visibility: 8 miles , 13 km
2020/07/09 14:35 KEDU 091435Z AUTO 34003KT 8SM CLR 15/12 A2985 RMK AO1
KSAC - Sacramento, California, USA
Distance from KPAO: NE 70nm, 81mi
Updated: Thu, 09-Jul-2020 7:53am PDT
Clear
Clear
 Wind from calm
Wind: Calm
Temperature: 63°F , 17°C
Dew Point: 54°F , 12°C
Humidity: 73%
Barometer: 29.86 inHg , 1011.2 hPa
Clouds: Clear
Visibility: 10 miles , 16 km
2020/07/09 14:53 KSAC 091453Z 00000KT 10SM CLR 17/12 A2986 RMK AO2 SLP109 T01720117 53012 $
 
KSTS - Santa Rosa, California, USA
Distance from KPAO: NW 71nm, 82mi
Updated: Thu, 09-Jul-2020 7:53am PDT
Haze, Clear
Haze, Clear
 Wind from calm
Wind: Calm
Temperature: 59°F , 15°C
Dew Point: 52°F , 11°C
Humidity: 77%
Barometer: 29.88 inHg , 1011.9 hPa
Summary: Haze
Clouds: Clear
Visibility: 6 miles , 10 km
2020/07/09 14:53 KSTS 091453Z 00000KT 6SM HZ CLR 15/11 A2988 RMK AO2 SLP112 T01500106 51007
KMHR - Mather Field, California, USA
Distance from KPAO: ENE 76nm, 88mi
Updated: Thu, 09-Jul-2020 6:50am PDT

 
Visibility: 1 mile , 2 km
2020/07/09 13:50 KMHR 091350Z 17004 10 SKC 16/11 A2983
 
KSMF - Sacramento/Metro, California, USA
Distance from KPAO: NE 78nm, 90mi
Updated: Thu, 09-Jul-2020 7:53am PDT
Clear
Clear
 Wind from ENE
Wind: ENE 3 mph , 6 km/h
Temperature: 64°F , 18°C
Dew Point: 54°F , 12°C
Humidity: 68%
Barometer: 29.85 inHg , 1010.8 hPa
Clouds: Clear
Visibility: 10 miles , 16 km
2020/07/09 14:53 KSMF 091453Z 07003KT 10SM CLR 18/12 A2985 RMK AO2 SLP107 T01830117 53013
KMCC - Mcclellan Afb, California, USA
Distance from KPAO: NE 80nm, 92mi
Updated: Thu, 09-Jul-2020 7:35am PDT
Clear
Clear
 Wind from calm
Wind: Calm
Temperature: 64°F , 18°C
Dew Point: 52°F , 11°C
Humidity: 64%
Barometer: 29.85 inHg , 1010.8 hPa
Clouds: Clear
Visibility: 9 miles , 14 km
2020/07/09 14:35 KMCC 091435Z AUTO 00000KT 9SM CLR 18/11 A2985 RMK AO2
 
KNKX - Miramar MCAS (Joe Foss Field) Airport, California, USA
Distance from KPAO: SE 368nm, 423mi
Updated: Thu, 09-Jul-2020 6:55am PDT
Overcast
Overcast
 Wind from calm
Wind: Calm
Temperature: 63°F , 17°C
Dew Point: 57°F , 14°C
Humidity: 83%
Barometer: 29.90 inHg , 1012.5 hPa
Clouds: Overcast
Visibility: 7 miles , 11 km
Cloud details: Overcast 800 ft
2020/07/09 13:55 KNKX 091355Z 00000KT 7SM OVC008 17/14 A2990 RMK AO2 SLP119 T01720144 $
KMYF - Montgomery-Gibbs Executive Airport, California, USA
Distance from KPAO: SE 371nm, 427mi
Updated: Thu, 09-Jul-2020 7:53am PDT
Overcast
Overcast
 Wind from calm
Wind: Calm
Temperature: 63°F , 17°C
Dew Point: 55°F , 13°C
Humidity: 77%
Barometer: 29.91 inHg , 1012.9 hPa
Clouds: Overcast
Visibility: 7 miles , 11 km
Cloud details: Overcast 900 ft
2020/07/09 14:53 KMYF 091453Z 00000KT 7SM OVC009 17/13 A2991 RMK AO2 SLP124 T01670133 51009